sensor_id;sensor_type;location;lat;lon;timestamp;temperature;humidity
18225;DHT22;9237;48.590;8.854;2023-03-14T00:01:08;8.70;99.90
18225;DHT22;9237;48.590;8.854;2023-03-14T00:03:35;8.70;99.90
18225;DHT22;9237;48.590;8.854;2023-03-14T00:06:02;8.70;99.90
18225;DHT22;9237;48.590;8.854;2023-03-14T00:08:29;8.70;99.90
18225;DHT22;9237;48.590;8.854;2023-03-14T00:10:56;8.70;99.90
18225;DHT22;9237;48.590;8.854;2023-03-14T00:13:23;8.70;99.90
18225;DHT22;9237;48.590;8.854;2023-03-14T00:15:51;8.70;99.90
18225;DHT22;9237;48.590;8.854;2023-03-14T00:18:18;8.70;99.90
18225;DHT22;9237;48.590;8.854;2023-03-14T00:20:45;8.70;99.90
18225;DHT22;9237;48.590;8.854;2023-03-14T00:23:12;8.70;99.90
18225;DHT22;9237;48.590;8.854;2023-03-14T00:25:39;8.70;99.90
18225;DHT22;9237;48.590;8.854;2023-03-14T00:28:05;8.70;99.90
18225;DHT22;9237;48.590;8.854;2023-03-14T00:30:32;8.70;99.90
18225;DHT22;9237;48.590;8.854;2023-03-14T00:33:00;8.70;99.90
18225;DHT22;9237;48.590;8.854;2023-03-14T00:35:27;8.70;99.90
18225;DHT22;9237;48.590;8.854;2023-03-14T00:37:54;8.70;99.90
18225;DHT22;9237;48.590;8.854;2023-03-14T00:40:20;8.70;99.90
18225;DHT22;9237;48.590;8.854;2023-03-14T00:42:47;8.70;99.90
18225;DHT22;9237;48.590;8.854;2023-03-14T00:45:14;8.70;99.90
18225;DHT22;9237;48.590;8.854;2023-03-14T00:47:40;8.70;99.90
18225;DHT22;9237;48.590;8.854;2023-03-14T00:50:12;8.70;99.90
18225;DHT22;9237;48.590;8.854;2023-03-14T00:52:39;8.70;99.90
18225;DHT22;9237;48.590;8.854;2023-03-14T00:55:06;8.70;99.90
18225;DHT22;9237;48.590;8.854;2023-03-14T00:57:33;8.70;99.90
18225;DHT22;9237;48.590;8.854;2023-03-14T00:59:59;8.70;99.90
18225;DHT22;9237;48.590;8.854;2023-03-14T01:02:26;8.70;99.90
18225;DHT22;9237;48.590;8.854;2023-03-14T01:04:53;8.70;99.90
18225;DHT22;9237;48.590;8.854;2023-03-14T01:07:21;8.80;99.90
18225;DHT22;9237;48.590;8.854;2023-03-14T01:09:51;8.80;99.90
18225;DHT22;9237;48.590;8.854;2023-03-14T01:12:18;8.80;99.90
18225;DHT22;9237;48.590;8.854;2023-03-14T01:14:44;8.80;99.90
18225;DHT22;9237;48.590;8.854;2023-03-14T01:17:11;8.80;99.90
18225;DHT22;9237;48.590;8.854;2023-03-14T01:19:38;8.80;99.90
18225;DHT22;9237;48.590;8.854;2023-03-14T01:22:05;8.80;99.90
18225;DHT22;9237;48.590;8.854;2023-03-14T01:24:33;8.80;99.90
18225;DHT22;9237;48.590;8.854;2023-03-14T01:26:59;8.80;99.90
18225;DHT22;9237;48.590;8.854;2023-03-14T01:29:26;8.80;99.90
18225;DHT22;9237;48.590;8.854;2023-03-14T01:31:53;8.80;99.90
18225;DHT22;9237;48.590;8.854;2023-03-14T01:34:20;8.80;99.90
18225;DHT22;9237;48.590;8.854;2023-03-14T01:36:46;8.80;99.90
18225;DHT22;9237;48.590;8.854;2023-03-14T01:39:13;8.70;99.90
18225;DHT22;9237;48.590;8.854;2023-03-14T01:41:41;8.70;99.90
18225;DHT22;9237;48.590;8.854;2023-03-14T01:44:10;8.70;99.90
18225;DHT22;9237;48.590;8.854;2023-03-14T01:46:41;8.60;99.90
18225;DHT22;9237;48.590;8.854;2023-03-14T01:49:17;8.60;99.90
18225;DHT22;9237;48.590;8.854;2023-03-14T01:51:49;8.60;99.90
18225;DHT22;9237;48.590;8.854;2023-03-14T01:54:21;8.60;99.90
18225;DHT22;9237;48.590;8.854;2023-03-14T01:56:54;8.60;99.90
18225;DHT22;9237;48.590;8.854;2023-03-14T01:59:21;8.60;99.90
18225;DHT22;9237;48.590;8.854;2023-03-14T02:01:49;8.60;99.90
18225;DHT22;9237;48.590;8.854;2023-03-14T02:04:17;8.60;99.90
18225;DHT22;9237;48.590;8.854;2023-03-14T02:06:50;8.50;99.90
18225;DHT22;9237;48.590;8.854;2023-03-14T02:09:18;8.60;99.90
18225;DHT22;9237;48.590;8.854;2023-03-14T02:11:45;8.60;99.90
18225;DHT22;9237;48.590;8.854;2023-03-14T02:14:21;8.60;99.90
18225;DHT22;9237;48.590;8.854;2023-03-14T02:16:51;8.60;99.90
18225;DHT22;9237;48.590;8.854;2023-03-14T02:19:29;8.50;99.90
18225;DHT22;9237;48.590;8.854;2023-03-14T02:22:05;8.50;99.90
18225;DHT22;9237;48.590;8.854;2023-03-14T02:24:37;8.50;99.90
18225;DHT22;9237;48.590;8.854;2023-03-14T02:27:15;8.50;99.90
18225;DHT22;9237;48.590;8.854;2023-03-14T02:29:49;7.80;99.90
18225;DHT22;9237;48.590;8.854;2023-03-14T02:32:18;8.50;99.90
18225;DHT22;9237;48.590;8.854;2023-03-14T02:34:48;8.50;99.90
18225;DHT22;9237;48.590;8.854;2023-03-14T02:37:16;8.60;99.90
18225;DHT22;9237;48.590;8.854;2023-03-14T02:39:45;8.50;99.90
18225;DHT22;9237;48.590;8.854;2023-03-14T02:42:15;8.40;99.90
18225;DHT22;9237;48.590;8.854;2023-03-14T02:44:53;8.40;99.90
18225;DHT22;9237;48.590;8.854;2023-03-14T02:47:26;8.40;99.90
18225;DHT22;9237;48.590;8.854;2023-03-14T02:49:58;8.30;99.90
18225;DHT22;9237;48.590;8.854;2023-03-14T02:52:25;8.20;99.90
18225;DHT22;9237;48.590;8.854;2023-03-14T02:54:52;8.20;99.90
18225;DHT22;9237;48.590;8.854;2023-03-14T02:57:20;8.20;99.90
18225;DHT22;9237;48.590;8.854;2023-03-14T02:59:47;8.20;99.90
18225;DHT22;9237;48.590;8.854;2023-03-14T03:02:13;8.10;99.90
18225;DHT22;9237;48.590;8.854;2023-03-14T03:04:40;8.10;99.90
18225;DHT22;9237;48.590;8.854;2023-03-14T03:07:07;8.00;99.90
18225;DHT22;9237;48.590;8.854;2023-03-14T03:09:34;8.00;99.90
18225;DHT22;9237;48.590;8.854;2023-03-14T03:12:01;8.10;99.90
18225;DHT22;9237;48.590;8.854;2023-03-14T03:14:29;8.10;99.90
18225;DHT22;9237;48.590;8.854;2023-03-14T03:16:56;8.10;99.90
18225;DHT22;9237;48.590;8.854;2023-03-14T03:19:23;8.10;99.90
18225;DHT22;9237;48.590;8.854;2023-03-14T03:21:49;8.10;99.90
18225;DHT22;9237;48.590;8.854;2023-03-14T03:24:16;8.10;99.90
18225;DHT22;9237;48.590;8.854;2023-03-14T03:26:43;8.10;99.90
18225;DHT22;9237;48.590;8.854;2023-03-14T03:29:09;8.00;99.90
18225;DHT22;9237;48.590;8.854;2023-03-14T03:31:38;8.00;99.90
18225;DHT22;9237;48.590;8.854;2023-03-14T03:34:05;8.00;99.90
18225;DHT22;9237;48.590;8.854;2023-03-14T03:36:32;8.00;99.90
18225;DHT22;9237;48.590;8.854;2023-03-14T03:38:59;8.00;99.90
18225;DHT22;9237;48.590;8.854;2023-03-14T03:41:25;8.10;99.90
18225;DHT22;9237;48.590;8.854;2023-03-14T03:43:52;8.10;99.90
18225;DHT22;9237;48.590;8.854;2023-03-14T03:46:19;8.10;99.90
18225;DHT22;9237;48.590;8.854;2023-03-14T03:48:47;8.10;99.90
18225;DHT22;9237;48.590;8.854;2023-03-14T03:51:15;8.10;99.90
18225;DHT22;9237;48.590;8.854;2023-03-14T03:53:42;8.00;99.90
18225;DHT22;9237;48.590;8.854;2023-03-14T03:56:09;8.00;99.90
18225;DHT22;9237;48.590;8.854;2023-03-14T03:58:36;8.00;99.90
18225;DHT22;9237;48.590;8.854;2023-03-14T04:01:05;8.00;99.90
18225;DHT22;9237;48.590;8.854;2023-03-14T04:03:32;8.00;99.90
18225;DHT22;9237;48.590;8.854;2023-03-14T04:06:01;8.00;99.90
18225;DHT22;9237;48.590;8.854;2023-03-14T04:08:29;8.00;99.90
18225;DHT22;9237;48.590;8.854;2023-03-14T04:10:56;8.00;99.90
18225;DHT22;9237;48.590;8.854;2023-03-14T04:13:23;8.10;99.90
18225;DHT22;9237;48.590;8.854;2023-03-14T04:15:51;8.20;99.90
18225;DHT22;9237;48.590;8.854;2023-03-14T04:18:18;8.10;99.90
18225;DHT22;9237;48.590;8.854;2023-03-14T04:20:45;8.20;99.90
18225;DHT22;9237;48.590;8.854;2023-03-14T04:23:13;8.20;99.90
18225;DHT22;9237;48.590;8.854;2023-03-14T04:25:40;8.20;99.90
18225;DHT22;9237;48.590;8.854;2023-03-14T04:28:06;8.10;99.90
18225;DHT22;9237;48.590;8.854;2023-03-14T04:30:33;8.10;99.90
18225;DHT22;9237;48.590;8.854;2023-03-14T04:33:00;8.00;99.90
18225;DHT22;9237;48.590;8.854;2023-03-14T04:35:27;8.00;99.90
18225;DHT22;9237;48.590;8.854;2023-03-14T04:37:56;8.00;99.90
18225;DHT22;9237;48.590;8.854;2023-03-14T04:40:24;8.00;99.90
18225;DHT22;9237;48.590;8.854;2023-03-14T04:42:51;8.00;99.90
18225;DHT22;9237;48.590;8.854;2023-03-14T04:45:18;8.00;99.90
18225;DHT22;9237;48.590;8.854;2023-03-14T04:47:45;8.00;99.90
18225;DHT22;9237;48.590;8.854;2023-03-14T04:50:11;8.00;99.90
18225;DHT22;9237;48.590;8.854;2023-03-14T04:52:38;7.90;99.90
18225;DHT22;9237;48.590;8.854;2023-03-14T04:55:05;7.80;99.90
18225;DHT22;9237;48.590;8.854;2023-03-14T04:57:33;7.70;99.90
18225;DHT22;9237;48.590;8.854;2023-03-14T05:00:00;7.70;99.90
18225;DHT22;9237;48.590;8.854;2023-03-14T05:02:31;7.70;99.90
18225;DHT22;9237;48.590;8.854;2023-03-14T05:04:58;7.80;99.90
18225;DHT22;9237;48.590;8.854;2023-03-14T05:07:25;7.00;99.90
18225;DHT22;9237;48.590;8.854;2023-03-14T05:09:52;7.80;99.90
18225;DHT22;9237;48.590;8.854;2023-03-14T05:12:19;7.90;99.90
18225;DHT22;9237;48.590;8.854;2023-03-14T05:14:47;7.90;99.90
18225;DHT22;9237;48.590;8.854;2023-03-14T05:17:14;8.00;99.90
18225;DHT22;9237;48.590;8.854;2023-03-14T05:19:42;8.10;99.90
18225;DHT22;9237;48.590;8.854;2023-03-14T05:22:09;8.00;99.90
18225;DHT22;9237;48.590;8.854;2023-03-14T05:24:36;8.10;99.90
18225;DHT22;9237;48.590;8.854;2023-03-14T05:27:04;8.10;99.90
18225;DHT22;9237;48.590;8.854;2023-03-14T05:29:31;8.10;99.90
18225;DHT22;9237;48.590;8.854;2023-03-14T05:31:59;8.00;99.90
18225;DHT22;9237;48.590;8.854;2023-03-14T05:34:26;8.00;99.90
18225;DHT22;9237;48.590;8.854;2023-03-14T05:36:53;8.00;99.90
18225;DHT22;9237;48.590;8.854;2023-03-14T05:39:21;8.00;99.90
18225;DHT22;9237;48.590;8.854;2023-03-14T05:41:48;7.90;99.90
18225;DHT22;9237;48.590;8.854;2023-03-14T05:44:15;8.00;99.90
18225;DHT22;9237;48.590;8.854;2023-03-14T05:46:42;8.00;99.90
18225;DHT22;9237;48.590;8.854;2023-03-14T05:49:10;8.10;99.90
18225;DHT22;9237;48.590;8.854;2023-03-14T05:51:37;8.20;99.90
18225;DHT22;9237;48.590;8.854;2023-03-14T05:54:04;8.20;99.90
18225;DHT22;9237;48.590;8.854;2023-03-14T05:56:31;8.20;99.90
18225;DHT22;9237;48.590;8.854;2023-03-14T05:58:57;8.10;99.90
18225;DHT22;9237;48.590;8.854;2023-03-14T06:01:27;8.20;99.90
18225;DHT22;9237;48.590;8.854;2023-03-14T06:03:54;8.40;99.90
18225;DHT22;9237;48.590;8.854;2023-03-14T06:06:22;8.30;99.90
18225;DHT22;9237;48.590;8.854;2023-03-14T06:08:48;8.20;99.90
18225;DHT22;9237;48.590;8.854;2023-03-14T06:11:15;8.20;99.90
18225;DHT22;9237;48.590;8.854;2023-03-14T06:13:42;8.30;99.90
18225;DHT22;9237;48.590;8.854;2023-03-14T06:16:09;8.30;99.90
18225;DHT22;9237;48.590;8.854;2023-03-14T06:18:35;8.40;99.90
18225;DHT22;9237;48.590;8.854;2023-03-14T06:21:02;8.50;99.90
18225;DHT22;9237;48.590;8.854;2023-03-14T06:23:30;8.60;99.90
18225;DHT22;9237;48.590;8.854;2023-03-14T06:25:57;8.60;99.90
18225;DHT22;9237;48.590;8.854;2023-03-14T06:28:24;8.80;99.90
18225;DHT22;9237;48.590;8.854;2023-03-14T06:30:51;8.80;99.90
18225;DHT22;9237;48.590;8.854;2023-03-14T06:33:18;8.70;99.90
18225;DHT22;9237;48.590;8.854;2023-03-14T06:35:45;8.70;99.90
18225;DHT22;9237;48.590;8.854;2023-03-14T06:38:11;8.70;99.90
18225;DHT22;9237;48.590;8.854;2023-03-14T06:40:39;8.70;99.90
18225;DHT22;9237;48.590;8.854;2023-03-14T06:43:06;8.70;99.90
18225;DHT22;9237;48.590;8.854;2023-03-14T06:45:33;8.70;99.90
18225;DHT22;9237;48.590;8.854;2023-03-14T06:48:00;8.90;99.90
18225;DHT22;9237;48.590;8.854;2023-03-14T06:50:26;8.90;99.90
18225;DHT22;9237;48.590;8.854;2023-03-14T06:52:53;9.00;99.90
18225;DHT22;9237;48.590;8.854;2023-03-14T06:55:20;9.20;99.90
18225;DHT22;9237;48.590;8.854;2023-03-14T06:57:48;9.20;99.90
18225;DHT22;9237;48.590;8.854;2023-03-14T07:00:16;9.50;99.90
18225;DHT22;9237;48.590;8.854;2023-03-14T07:02:42;9.10;99.90
18225;DHT22;9237;48.590;8.854;2023-03-14T07:05:09;9.10;99.90
18225;DHT22;9237;48.590;8.854;2023-03-14T07:07:36;9.10;99.90
18225;DHT22;9237;48.590;8.854;2023-03-14T07:10:04;9.10;99.90
18225;DHT22;9237;48.590;8.854;2023-03-14T07:12:30;9.20;99.90
18225;DHT22;9237;48.590;8.854;2023-03-14T07:14:59;9.20;99.90
18225;DHT22;9237;48.590;8.854;2023-03-14T07:17:26;9.60;99.90
18225;DHT22;9237;48.590;8.854;2023-03-14T07:19:52;10.00;99.90
18225;DHT22;9237;48.590;8.854;2023-03-14T07:22:19;9.90;99.90
18225;DHT22;9237;48.590;8.854;2023-03-14T07:24:46;9.70;99.90
18225;DHT22;9237;48.590;8.854;2023-03-14T07:27:12;9.60;99.90
18225;DHT22;9237;48.590;8.854;2023-03-14T07:29:39;9.70;99.90
18225;DHT22;9237;48.590;8.854;2023-03-14T07:32:07;9.90;99.90
18225;DHT22;9237;48.590;8.854;2023-03-14T07:34:35;10.20;99.90
18225;DHT22;9237;48.590;8.854;2023-03-14T07:37:01;10.30;99.90
18225;DHT22;9237;48.590;8.854;2023-03-14T07:39:29;10.50;99.90
18225;DHT22;9237;48.590;8.854;2023-03-14T07:41:56;10.40;99.90
18225;DHT22;9237;48.590;8.854;2023-03-14T07:44:22;10.60;99.90
18225;DHT22;9237;48.590;8.854;2023-03-14T07:46:49;10.80;99.90
18225;DHT22;9237;48.590;8.854;2023-03-14T07:49:17;10.70;99.90
18225;DHT22;9237;48.590;8.854;2023-03-14T07:51:47;10.80;99.90
18225;DHT22;9237;48.590;8.854;2023-03-14T07:54:14;10.90;99.90
18225;DHT22;9237;48.590;8.854;2023-03-14T07:56:41;11.00;99.90
18225;DHT22;9237;48.590;8.854;2023-03-14T07:59:07;10.80;99.90
18225;DHT22;9237;48.590;8.854;2023-03-14T08:01:34;10.90;99.90
18225;DHT22;9237;48.590;8.854;2023-03-14T08:04:01;10.80;99.90
18225;DHT22;9237;48.590;8.854;2023-03-14T08:06:29;10.80;99.90
18225;DHT22;9237;48.590;8.854;2023-03-14T08:08:56;10.80;99.90
18225;DHT22;9237;48.590;8.854;2023-03-14T08:11:22;10.90;99.90
18225;DHT22;9237;48.590;8.854;2023-03-14T08:13:49;10.90;99.90
18225;DHT22;9237;48.590;8.854;2023-03-14T08:16:17;10.90;99.90
18225;DHT22;9237;48.590;8.854;2023-03-14T08:18:43;10.90;99.90
18225;DHT22;9237;48.590;8.854;2023-03-14T08:21:11;10.80;99.90
18225;DHT22;9237;48.590;8.854;2023-03-14T08:23:39;10.90;99.90
18225;DHT22;9237;48.590;8.854;2023-03-14T08:26:06;10.80;99.90
18225;DHT22;9237;48.590;8.854;2023-03-14T08:28:33;10.90;99.90
18225;DHT22;9237;48.590;8.854;2023-03-14T08:31:00;10.90;99.90
18225;DHT22;9237;48.590;8.854;2023-03-14T08:33:28;10.80;99.90
18225;DHT22;9237;48.590;8.854;2023-03-14T08:35:56;10.70;99.90
18225;DHT22;9237;48.590;8.854;2023-03-14T08:38:23;10.50;99.90
18225;DHT22;9237;48.590;8.854;2023-03-14T08:40:55;10.30;99.90
18225;DHT22;9237;48.590;8.854;2023-03-14T08:43:22;10.20;99.90
18225;DHT22;9237;48.590;8.854;2023-03-14T08:45:49;10.10;99.90
18225;DHT22;9237;48.590;8.854;2023-03-14T08:48:15;10.10;99.90
18225;DHT22;9237;48.590;8.854;2023-03-14T08:50:42;10.10;99.90
18225;DHT22;9237;48.590;8.854;2023-03-14T08:53:09;10.20;99.90
18225;DHT22;9237;48.590;8.854;2023-03-14T08:55:36;10.20;99.90
18225;DHT22;9237;48.590;8.854;2023-03-14T08:58:04;10.30;99.90
18225;DHT22;9237;48.590;8.854;2023-03-14T09:00:31;10.40;99.90
18225;DHT22;9237;48.590;8.854;2023-03-14T09:02:57;10.30;99.90
18225;DHT22;9237;48.590;8.854;2023-03-14T09:05:24;10.30;99.90
18225;DHT22;9237;48.590;8.854;2023-03-14T09:07:51;10.40;99.90
18225;DHT22;9237;48.590;8.854;2023-03-14T09:10:18;10.50;99.90
18225;DHT22;9237;48.590;8.854;2023-03-14T09:12:45;10.60;99.90
18225;DHT22;9237;48.590;8.854;2023-03-14T09:15:13;10.70;99.90
18225;DHT22;9237;48.590;8.854;2023-03-14T09:17:42;10.70;99.90
18225;DHT22;9237;48.590;8.854;2023-03-14T09:20:10;10.80;99.90
18225;DHT22;9237;48.590;8.854;2023-03-14T09:22:37;10.90;99.90
18225;DHT22;9237;48.590;8.854;2023-03-14T09:25:04;11.00;99.90
18225;DHT22;9237;48.590;8.854;2023-03-14T09:27:31;11.10;99.90
18225;DHT22;9237;48.590;8.854;2023-03-14T09:29:58;11.20;99.90
18225;DHT22;9237;48.590;8.854;2023-03-14T09:32:26;11.60;99.90
18225;DHT22;9237;48.590;8.854;2023-03-14T09:34:52;11.90;99.90
18225;DHT22;9237;48.590;8.854;2023-03-14T09:37:19;12.20;99.90
18225;DHT22;9237;48.590;8.854;2023-03-14T09:39:46;11.90;99.90
18225;DHT22;9237;48.590;8.854;2023-03-14T09:42:15;11.50;99.90
18225;DHT22;9237;48.590;8.854;2023-03-14T09:44:51;11.30;99.90
18225;DHT22;9237;48.590;8.854;2023-03-14T09:47:19;11.50;99.90
18225;DHT22;9237;48.590;8.854;2023-03-14T09:49:48;12.00;99.90
18225;DHT22;9237;48.590;8.854;2023-03-14T09:52:17;12.20;99.90
18225;DHT22;9237;48.590;8.854;2023-03-14T09:54:47;12.90;99.90
18225;DHT22;9237;48.590;8.854;2023-03-14T09:57:17;13.80;99.90
18225;DHT22;9237;48.590;8.854;2023-03-14T09:59:45;14.60;99.90
18225;DHT22;9237;48.590;8.854;2023-03-14T10:02:16;14.70;99.90
18225;DHT22;9237;48.590;8.854;2023-03-14T10:04:45;14.60;99.90
18225;DHT22;9237;48.590;8.854;2023-03-14T10:07:15;13.90;99.90
18225;DHT22;9237;48.590;8.854;2023-03-14T10:09:45;13.30;99.90
18225;DHT22;9237;48.590;8.854;2023-03-14T10:12:14;13.10;99.90
18225;DHT22;9237;48.590;8.854;2023-03-14T10:14:47;12.80;99.90
18225;DHT22;9237;48.590;8.854;2023-03-14T10:17:15;12.50;99.90
18225;DHT22;9237;48.590;8.854;2023-03-14T10:19:52;12.40;99.90
18225;DHT22;9237;48.590;8.854;2023-03-14T10:22:21;12.90;99.90
18225;DHT22;9237;48.590;8.854;2023-03-14T10:24:52;13.10;99.90
18225;DHT22;9237;48.590;8.854;2023-03-14T10:27:20;13.10;99.90
18225;DHT22;9237;48.590;8.854;2023-03-14T10:29:53;13.40;99.90
18225;DHT22;9237;48.590;8.854;2023-03-14T10:32:27;14.20;99.90
18225;DHT22;9237;48.590;8.854;2023-03-14T10:35:07;14.40;99.90
18225;DHT22;9237;48.590;8.854;2023-03-14T10:37:48;13.80;99.90
18225;DHT22;9237;48.590;8.854;2023-03-14T10:40:18;12.90;99.90
18225;DHT22;9237;48.590;8.854;2023-03-14T10:42:46;12.40;99.90
18225;DHT22;9237;48.590;8.854;2023-03-14T10:45:28;12.30;99.90
18225;DHT22;9237;48.590;8.854;2023-03-14T10:47:58;12.10;99.90
18225;DHT22;9237;48.590;8.854;2023-03-14T10:50:27;12.20;99.90
18225;DHT22;9237;48.590;8.854;2023-03-14T10:52:56;12.00;99.90
18225;DHT22;9237;48.590;8.854;2023-03-14T10:55:24;11.60;99.90
18225;DHT22;9237;48.590;8.854;2023-03-14T10:57:51;11.30;99.90
18225;DHT22;9237;48.590;8.854;2023-03-14T11:00:20;11.00;99.90
18225;DHT22;9237;48.590;8.854;2023-03-14T11:02:59;10.80;99.90
18225;DHT22;9237;48.590;8.854;2023-03-14T11:05:33;10.60;99.90
18225;DHT22;9237;48.590;8.854;2023-03-14T11:08:07;10.80;99.90
18225;DHT22;9237;48.590;8.854;2023-03-14T11:10:38;11.10;99.90
18225;DHT22;9237;48.590;8.854;2023-03-14T11:13:15;11.30;99.90
18225;DHT22;9237;48.590;8.854;2023-03-14T11:15:52;11.20;99.90
18225;DHT22;9237;48.590;8.854;2023-03-14T11:18:48;10.60;99.90
18225;DHT22;9237;48.590;8.854;2023-03-14T11:21:22;10.20;99.90
18225;DHT22;9237;48.590;8.854;2023-03-14T11:24:00;10.00;99.90
18225;DHT22;9237;48.590;8.854;2023-03-14T11:26:33;10.00;99.90
18225;DHT22;9237;48.590;8.854;2023-03-14T11:29:12;9.90;99.90
18225;DHT22;9237;48.590;8.854;2023-03-14T11:31:44;9.80;99.90
18225;DHT22;9237;48.590;8.854;2023-03-14T11:34:16;9.90;99.90
18225;DHT22;9237;48.590;8.854;2023-03-14T11:36:48;10.20;99.90
18225;DHT22;9237;48.590;8.854;2023-03-14T11:39:19;10.50;99.90
18225;DHT22;9237;48.590;8.854;2023-03-14T11:41:48;10.60;99.90
18225;DHT22;9237;48.590;8.854;2023-03-14T11:44:18;10.60;99.90
18225;DHT22;9237;48.590;8.854;2023-03-14T11:46:48;10.50;99.90
18225;DHT22;9237;48.590;8.854;2023-03-14T11:49:25;10.30;99.90
18225;DHT22;9237;48.590;8.854;2023-03-14T11:51:56;10.10;99.90
18225;DHT22;9237;48.590;8.854;2023-03-14T11:54:32;9.90;99.90
18225;DHT22;9237;48.590;8.854;2023-03-14T11:57:03;9.80;99.90
18225;DHT22;9237;48.590;8.854;2023-03-14T11:59:38;9.70;99.90
18225;DHT22;9237;48.590;8.854;2023-03-14T12:02:15;9.60;99.90
18225;DHT22;9237;48.590;8.854;2023-03-14T12:04:51;9.50;99.90
18225;DHT22;9237;48.590;8.854;2023-03-14T12:07:25;9.50;99.90
18225;DHT22;9237;48.590;8.854;2023-03-14T12:09:57;9.40;99.90
18225;DHT22;9237;48.590;8.854;2023-03-14T12:12:25;9.60;99.90
18225;DHT22;9237;48.590;8.854;2023-03-14T12:14:55;9.70;99.90
18225;DHT22;9237;48.590;8.854;2023-03-14T12:17:26;9.80;99.90
18225;DHT22;9237;48.590;8.854;2023-03-14T12:20:05;10.10;99.90
18225;DHT22;9237;48.590;8.854;2023-03-14T12:22:43;10.00;99.90
18225;DHT22;9237;48.590;8.854;2023-03-14T12:25:17;10.20;99.90
18225;DHT22;9237;48.590;8.854;2023-03-14T12:28:02;10.50;99.90
18225;DHT22;9237;48.590;8.854;2023-03-14T12:30:33;10.50;99.90
18225;DHT22;9237;48.590;8.854;2023-03-14T12:36:31;10.20;99.90
18225;DHT22;9237;48.590;8.854;2023-03-14T12:39:20;10.20;99.90
18225;DHT22;9237;48.590;8.854;2023-03-14T12:41:52;10.20;99.90
18225;DHT22;9237;48.590;8.854;2023-03-14T12:44:40;10.30;99.90
18225;DHT22;9237;48.590;8.854;2023-03-14T12:47:41;10.00;99.90
18225;DHT22;9237;48.590;8.854;2023-03-14T12:50:16;9.90;99.90
18225;DHT22;9237;48.590;8.854;2023-03-14T12:55:36;9.40;99.90
18225;DHT22;9237;48.590;8.854;2023-03-14T12:58:10;9.20;99.90
18225;DHT22;9237;48.590;8.854;2023-03-14T13:00:40;9.30;99.90
18225;DHT22;9237;48.590;8.854;2023-03-14T13:03:18;9.30;99.90
18225;DHT22;9237;48.590;8.854;2023-03-14T13:05:56;9.40;99.90
18225;DHT22;9237;48.590;8.854;2023-03-14T13:08:35;9.50;99.90
18225;DHT22;9237;48.590;8.854;2023-03-14T13:11:04;9.40;99.90
18225;DHT22;9237;48.590;8.854;2023-03-14T13:13:34;9.20;99.90
18225;DHT22;9237;48.590;8.854;2023-03-14T13:16:02;9.20;99.90
18225;DHT22;9237;48.590;8.854;2023-03-14T13:18:34;9.30;99.90
18225;DHT22;9237;48.590;8.854;2023-03-14T13:21:03;9.20;99.90
18225;DHT22;9237;48.590;8.854;2023-03-14T13:23:32;9.00;99.90
18225;DHT22;9237;48.590;8.854;2023-03-14T13:26:00;9.00;99.90
18225;DHT22;9237;48.590;8.854;2023-03-14T13:28:29;8.80;99.90
18225;DHT22;9237;48.590;8.854;2023-03-14T13:31:00;8.80;99.90
18225;DHT22;9237;48.590;8.854;2023-03-14T13:33:28;8.80;99.90
18225;DHT22;9237;48.590;8.854;2023-03-14T13:35:56;8.70;99.90
18225;DHT22;9237;48.590;8.854;2023-03-14T13:38:25;8.50;99.90
18225;DHT22;9237;48.590;8.854;2023-03-14T13:40:54;8.40;99.90
18225;DHT22;9237;48.590;8.854;2023-03-14T13:43:27;8.30;99.90
18225;DHT22;9237;48.590;8.854;2023-03-14T13:46:03;8.20;99.90
18225;DHT22;9237;48.590;8.854;2023-03-14T13:48:32;8.10;99.50
18225;DHT22;9237;48.590;8.854;2023-03-14T13:51:03;8.10;99.90
18225;DHT22;9237;48.590;8.854;2023-03-14T13:53:31;8.30;99.90
18225;DHT22;9237;48.590;8.854;2023-03-14T13:56:01;8.30;99.60
18225;DHT22;9237;48.590;8.854;2023-03-14T13:58:30;8.30;99.90
18225;DHT22;9237;48.590;8.854;2023-03-14T14:01:02;8.30;98.60
18225;DHT22;9237;48.590;8.854;2023-03-14T14:03:32;8.30;99.40
18225;DHT22;9237;48.590;8.854;2023-03-14T14:06:00;8.30;99.30
18225;DHT22;9237;48.590;8.854;2023-03-14T14:08:27;8.40;99.20
18225;DHT22;9237;48.590;8.854;2023-03-14T14:10:58;8.60;99.00
18225;DHT22;9237;48.590;8.854;2023-03-14T14:13:27;8.60;99.10
18225;DHT22;9237;48.590;8.854;2023-03-14T14:15:55;8.60;97.60
18225;DHT22;9237;48.590;8.854;2023-03-14T14:18:26;8.50;98.20
18225;DHT22;9237;48.590;8.854;2023-03-14T14:20:54;8.50;97.80
18225;DHT22;9237;48.590;8.854;2023-03-14T14:23:22;8.50;96.50
18225;DHT22;9237;48.590;8.854;2023-03-14T14:25:51;8.70;97.10
18225;DHT22;9237;48.590;8.854;2023-03-14T14:28:25;8.70;97.00
18225;DHT22;9237;48.590;8.854;2023-03-14T14:31:01;8.60;95.80
18225;DHT22;9237;48.590;8.854;2023-03-14T14:33:38;8.60;95.20
18225;DHT22;9237;48.590;8.854;2023-03-14T14:36:11;8.60;94.80
18225;DHT22;9237;48.590;8.854;2023-03-14T14:38:39;8.70;93.70
18225;DHT22;9237;48.590;8.854;2023-03-14T14:41:06;9.00;93.50
18225;DHT22;9237;48.590;8.854;2023-03-14T14:43:36;9.50;92.60
18225;DHT22;9237;48.590;8.854;2023-03-14T14:46:07;10.40;92.80
18225;DHT22;9237;48.590;8.854;2023-03-14T14:48:37;11.00;89.50
18225;DHT22;9237;48.590;8.854;2023-03-14T14:51:06;10.30;91.40
18225;DHT22;9237;48.590;8.854;2023-03-14T14:53:37;9.60;91.00
18225;DHT22;9237;48.590;8.854;2023-03-14T14:56:07;9.20;91.40
18225;DHT22;9237;48.590;8.854;2023-03-14T14:58:36;8.90;92.00
18225;DHT22;9237;48.590;8.854;2023-03-14T15:01:07;8.90;92.70
18225;DHT22;9237;48.590;8.854;2023-03-14T15:03:34;8.70;93.10
18225;DHT22;9237;48.590;8.854;2023-03-14T15:06:03;8.50;93.40
18225;DHT22;9237;48.590;8.854;2023-03-14T15:08:30;8.50;93.30
18225;DHT22;9237;48.590;8.854;2023-03-14T15:10:57;8.40;92.80
18225;DHT22;9237;48.590;8.854;2023-03-14T15:13:24;8.30;92.90
18225;DHT22;9237;48.590;8.854;2023-03-14T15:15:51;8.30;93.00
18225;DHT22;9237;48.590;8.854;2023-03-14T15:18:22;8.20;92.80
18225;DHT22;9237;48.590;8.854;2023-03-14T15:20:49;8.20;93.60
18225;DHT22;9237;48.590;8.854;2023-03-14T15:23:18;8.10;92.90
18225;DHT22;9237;48.590;8.854;2023-03-14T15:25:45;8.10;93.70
18225;DHT22;9237;48.590;8.854;2023-03-14T15:28:20;8.20;93.00
18225;DHT22;9237;48.590;8.854;2023-03-14T15:30:48;8.30;92.60
18225;DHT22;9237;48.590;8.854;2023-03-14T15:33:15;8.20;92.70
18225;DHT22;9237;48.590;8.854;2023-03-14T15:35:43;8.10;92.90
18225;DHT22;9237;48.590;8.854;2023-03-14T15:38:11;8.10;93.90
18225;DHT22;9237;48.590;8.854;2023-03-14T15:40:41;8.10;93.20
18225;DHT22;9237;48.590;8.854;2023-03-14T15:43:08;8.10;92.80
18225;DHT22;9237;48.590;8.854;2023-03-14T15:45:35;8.00;92.80
18225;DHT22;9237;48.590;8.854;2023-03-14T15:48:02;8.00;93.40
18225;DHT22;9237;48.590;8.854;2023-03-14T15:50:29;8.00;94.10
18225;DHT22;9237;48.590;8.854;2023-03-14T15:52:56;8.00;93.20
18225;DHT22;9237;48.590;8.854;2023-03-14T15:55:23;8.00;93.70
18225;DHT22;9237;48.590;8.854;2023-03-14T15:57:51;8.00;93.20
18225;DHT22;9237;48.590;8.854;2023-03-14T16:00:19;8.00;93.70
18225;DHT22;9237;48.590;8.854;2023-03-14T16:02:48;8.00;93.10
18225;DHT22;9237;48.590;8.854;2023-03-14T16:05:16;8.00;93.20
18225;DHT22;9237;48.590;8.854;2023-03-14T16:07:44;8.10;93.20
18225;DHT22;9237;48.590;8.854;2023-03-14T16:10:12;8.20;93.50
18225;DHT22;9237;48.590;8.854;2023-03-14T16:12:39;8.20;93.30
18225;DHT22;9237;48.590;8.854;2023-03-14T16:15:08;8.10;93.00